Airways and Terminal Forecast

Significant Meteorological Information

WSPH31 RPLL 280924 
RPHI SIGMET A06 VALID 280924/281324 RPLL-
RPHI MANILA FIR EMBD TS OBS WI N1103 E11609 - N1035 E11400 - N1422 E11400 - N1427 E11434 - N1103 E11609 TOP FL530 MOV NW 10KT NC=

 

WSPH31 RPLL 280912
RPHI SIGMET B05 VALID 280912/281312 RPLL-
RPHI MANILA FIR EMBD TS OBS WI N0741 E12456 - N0400 E12250 - N0400 E12000 - N0553 E11839 - N0709 E11954 - N0822 E12356 - N0741 E12456 TOP FL530 MOV W 10KT NC=

 

 

Terminal Aerodrome Forecast

TAF RPLL

 

281100Z 2812/2918 08007KT 9999 FEW025 BKN300 TX31/2905Z TN25/2821Z TEMPO 2812/2818 09010KT FEW023 BKN100 TEMPO 2818/2824 11012KT -SHRA SCT023 BKN100=

TAF RPVM

281100Z 2812/2918 03009KT 9999 FEW020 BKN300 TEMPO 2812/2818 04011KT FEW018CB FEW020 SCT300 TEMPO 2818/2824 36009KT -SHRA FEW018CB FEW020 BKN300=

TAF RPLC

281100Z 2812/2918 36008KT 8000 SCT020 BKN100 TX32/2906Z TN24/2821Z TEMPO 2812/2818 32006KT 7000 -SHRA SCT018 OVC100=

TAF RPLB

281100Z 2812/2912 07008KT 9999 FEW020 BKN300 TX31/2906Z TN24/2821Z TEMPO 2812/2818 06012KT SCT020 BKN080=

TAF RPLI

281100Z 2812/2912 01015KT 9999 FEW018 SCT100 BKN290 TEMPO 2812/2818 04010G20KT 8000 -SHRA SCT018 OVC090=

TAF RPVP

281100Z 2812/2912 09006KT 9999 FEW019 SCT080 BKN250 TEMPO 2812/2818 27004KT 8000 -TSRA FEW017CB SCT019 OVC080=

TAF RPVD

281100Z 2812/2912 04008KT 9999 FEW015 SCT070 TEMPO 2812/2818 32004KT -SHRA FEW014CB SCT015 BKN070=

TAF RPMR

281100Z 2812/2912 05006KT 9999 FEW018 SCT080 TEMPO 2812/2818 35004KT FEW018 BKN080=

TAF RPMD

281100Z 2812/2912 01006KT 9999 FEW016 SCT090 BKN290 TEMPO 2812/2818 VRB01KT -SHRA FEW015CB BKN090=

TAF RPMZ

281100Z 2812/2912 08006KT 9999 FEW017 SCT300 TEMPO 2812/2818 VRB02KT FEW016CB FEW017 BKN300=


 

RPLL FORECAST TAKE-OFF CONDITION

TIME

(UTC)

WIND

(dddffKT)

TEMP

(°C)

QNH

(hPa)

TIME

(UTC)

WIND

(dddffKT)

TEMP

(°C)

QNH

(hPa)

1200

08006KT

29.0

1010.0

1600

08009KT

28.0

1010.0

1300

08007KT

29.0

1011.0

1700

09010KT

27.0

1010.0

1400

10009KT

29.0

1010.0

1800

11011KT

27.0

1011.0

1500

08010KT

28.0

1010.0

1900

10010KT

26.0

1011.0

 

ISSUED AT NAIA AMSS-WD/PAGASA-DOST FOR 1100UTC 28 NOVEMBER 2020

 

PREPARED BY:    CRSED

CHECKED BY:     SSDH